UAL128 KEWR-KPBI
Flight info
| Callsign | UAL128 |
|---|---|
| Flight time | 2h 19m |
| Altitude | 36000 |
| Route | DCT ELVAE DCT NECCK DCT WHITE Q409 CRPLR DCT EARZZ Q131 WAALT Y289 DULEE CLMNT2 |
| Aircraft | A320/M-SDE3FGHIRWY/LB1 |
Departure
| Time | 2026-04-25 22:54 |
|---|---|
| Airport | Newark Liberty International Airport (KEWR) |
Arrival
| Time | 2026-04-26 01:13 |
|---|---|
| Airport | Palm Beach International Airport (KPBI) |
| Time | Latitude | Longitude | Altitude | Speed | Heading |
|---|---|---|---|---|---|
| 2026-04-25 22:23 | 40.69605 | -74.17355 | 20 ft | 0 kts | 143° |
| 2026-04-25 22:39 | 40.69613 | -74.17363 | 19 ft | 2 kts | 126° |
| 2026-04-25 22:39 | 40.69623 | -74.17380 | 19 ft | 2 kts | 147° |
| 2026-04-25 22:39 | 40.69634 | -74.17395 | 21 ft | 2 kts | 89° |
| 2026-04-25 22:39 | 40.69628 | -74.17413 | 21 ft | 2 kts | 41° |
| 2026-04-25 22:40 | 40.69620 | -74.17421 | 23 ft | 0 kts | 42° |
| 2026-04-25 22:44 | 40.69629 | -74.17411 | 21 ft | 2 kts | 40° |
| 2026-04-25 22:44 | 40.69644 | -74.17394 | 20 ft | 3 kts | 39° |
| 2026-04-25 22:44 | 40.69666 | -74.17370 | 22 ft | 5 kts | 40° |
| 2026-04-25 22:45 | 40.69698 | -74.17335 | 21 ft | 7 kts | 42° |
| 2026-04-25 22:45 | 40.69722 | -74.17267 | 21 ft | 10 kts | 68° |
| 2026-04-25 22:45 | 40.69775 | -74.17174 | 23 ft | 15 kts | 51° |
| 2026-04-25 22:45 | 40.69746 | -74.17092 | 20 ft | 13 kts | 143° |
| 2026-04-25 22:46 | 40.69654 | -74.17033 | 20 ft | 17 kts | 159° |
| 2026-04-25 22:46 | 40.69524 | -74.16984 | 21 ft | 20 kts | 169° |
| 2026-04-25 22:46 | 40.69391 | -74.16975 | 21 ft | 19 kts | 183° |
| 2026-04-25 22:46 | 40.69258 | -74.17014 | 19 ft | 20 kts | 201° |
| 2026-04-25 22:47 | 40.69130 | -74.17093 | 18 ft | 21 kts | 205° |
| 2026-04-25 22:47 | 40.68998 | -74.17177 | 18 ft | 21 kts | 206° |
| 2026-04-25 22:47 | 40.68874 | -74.17255 | 22 ft | 19 kts | 206° |
| 2026-04-25 22:47 | 40.68760 | -74.17329 | 24 ft | 18 kts | 208° |
| 2026-04-25 22:48 | 40.68657 | -74.17394 | 27 ft | 16 kts | 206° |
| 2026-04-25 22:48 | 40.68555 | -74.17460 | 27 ft | 17 kts | 206° |
| 2026-04-25 22:48 | 40.68443 | -74.17531 | 24 ft | 18 kts | 205° |
| 2026-04-25 22:48 | 40.68326 | -74.17605 | 21 ft | 20 kts | 206° |
| 2026-04-25 22:49 | 40.68202 | -74.17685 | 20 ft | 19 kts | 205° |
| 2026-04-25 22:49 | 40.68088 | -74.17756 | 20 ft | 19 kts | 205° |
| 2026-04-25 22:49 | 40.67969 | -74.17833 | 21 ft | 19 kts | 205° |
| 2026-04-25 22:49 | 40.67852 | -74.17906 | 23 ft | 19 kts | 206° |
| 2026-04-25 22:50 | 40.67731 | -74.17983 | 22 ft | 19 kts | 205° |
| 2026-04-25 22:50 | 40.67632 | -74.18046 | 22 ft | 13 kts | 205° |
| 2026-04-25 22:50 | 40.67600 | -74.18041 | 22 ft | 0 kts | 139° |
| 2026-04-25 22:51 | 40.67591 | -74.18030 | 22 ft | 4 kts | 135° |
| 2026-04-25 22:51 | 40.67568 | -74.17988 | 24 ft | 8 kts | 118° |
| 2026-04-25 22:52 | 40.67575 | -74.17919 | 24 ft | 8 kts | 32° |
| 2026-04-25 22:52 | 40.67593 | -74.17907 | 22 ft | 0 kts | 26° |
| 2026-04-25 22:53 | 40.67595 | -74.17905 | 22 ft | 3 kts | 26° |
| 2026-04-25 22:53 | 40.67747 | -74.17808 | 20 ft | 55 kts | 27° |
| 2026-04-25 22:53 | 40.68270 | -74.17479 | 23 ft | 107 kts | 25° |
| 2026-04-25 22:53 | 40.69066 | -74.16974 | 21 ft | 145 kts | 25° |
| 2026-04-25 22:54 | 40.70017 | -74.16292 | 271 ft | 154 kts | 32° |
| 2026-04-25 22:54 | 40.70914 | -74.15567 | 875 ft | 151 kts | 40° |
| 2026-04-25 22:54 | 40.71725 | -74.14648 | 1330 ft | 159 kts | 52° |
| 2026-04-25 22:54 | 40.72546 | -74.13602 | 1773 ft | 170 kts | 50° |
| 2026-04-25 22:55 | 40.73455 | -74.12405 | 1923 ft | 196 kts | 50° |
| 2026-04-25 22:55 | 40.74415 | -74.11175 | 2738 ft | 188 kts | 50° |
| 2026-04-25 22:55 | 40.75436 | -74.10093 | 3404 ft | 196 kts | 33° |
| 2026-04-25 22:55 | 40.76863 | -74.09704 | 3592 ft | 230 kts | 353° |
| 2026-04-25 22:56 | 40.78335 | -74.10468 | 4355 ft | 217 kts | 322° |
| 2026-04-25 22:56 | 40.79432 | -74.11749 | 5063 ft | 213 kts | 295° |
| 2026-04-25 22:56 | 40.80017 | -74.13587 | 5320 ft | 222 kts | 273° |
| 2026-04-25 22:56 | 40.79921 | -74.15593 | 5655 ft | 223 kts | 246° |
| 2026-04-25 22:57 | 40.79054 | -74.17276 | 6375 ft | 226 kts | 220° |
| 2026-04-25 22:57 | 40.77616 | -74.18165 | 7124 ft | 237 kts | 196° |
| 2026-04-25 22:57 | 40.75991 | -74.18621 | 7851 ft | 240 kts | 200° |
| 2026-04-25 22:57 | 40.74388 | -74.19273 | 8624 ft | 242 kts | 204° |
| 2026-04-25 22:58 | 40.72799 | -74.19987 | 9337 ft | 247 kts | 204° |
| 2026-04-25 22:58 | 40.71160 | -74.20727 | 10072 ft | 251 kts | 204° |
| 2026-04-25 22:58 | 40.69485 | -74.21468 | 10719 ft | 256 kts | 204° |
| 2026-04-25 22:58 | 40.67775 | -74.22208 | 11378 ft | 260 kts | 204° |
| 2026-04-25 22:59 | 40.66037 | -74.22948 | 12055 ft | 264 kts | 204° |
| 2026-04-25 22:59 | 40.64258 | -74.23691 | 12706 ft | 269 kts | 204° |
| 2026-04-25 22:59 | 40.62456 | -74.24439 | 13346 ft | 274 kts | 203° |
| 2026-04-25 22:59 | 40.60620 | -74.25194 | 13967 ft | 279 kts | 203° |
| 2026-04-25 23:00 | 40.58719 | -74.25953 | 14123 ft | 302 kts | 200° |
| 2026-04-25 23:00 | 40.56561 | -74.26458 | 14328 ft | 325 kts | 190° |
| 2026-04-25 23:00 | 40.54248 | -74.26511 | 14656 ft | 337 kts | 181° |
| 2026-04-25 23:00 | 40.51896 | -74.26071 | 15397 ft | 346 kts | 171° |
| 2026-04-25 23:01 | 40.49510 | -74.25117 | 15585 ft | 369 kts | 163° |
| 2026-04-25 23:01 | 40.47043 | -74.23888 | 15721 ft | 388 kts | 163° |
| 2026-04-25 23:01 | 40.44514 | -74.22631 | 16205 ft | 396 kts | 163° |
| 2026-04-25 23:01 | 40.41931 | -74.21343 | 16816 ft | 400 kts | 162° |
| 2026-04-25 23:02 | 40.39316 | -74.20043 | 17425 ft | 405 kts | 162° |
| 2026-04-25 23:02 | 40.36664 | -74.18727 | 18065 ft | 409 kts | 162° |
| 2026-04-25 23:02 | 40.33961 | -74.17499 | 18624 ft | 411 kts | 169° |
| 2026-04-25 23:02 | 40.31141 | -74.16880 | 19182 ft | 410 kts | 180° |
| 2026-04-25 23:03 | 40.28299 | -74.16962 | 19765 ft | 407 kts | 191° |
| 2026-04-25 23:03 | 40.25537 | -74.17672 | 20362 ft | 406 kts | 197° |
| 2026-04-25 23:03 | 40.22768 | -74.18512 | 20938 ft | 408 kts | 197° |
| 2026-04-25 23:03 | 40.19994 | -74.19350 | 21502 ft | 410 kts | 197° |
| 2026-04-25 23:04 | 40.17207 | -74.20190 | 22054 ft | 412 kts | 197° |
| 2026-04-25 23:04 | 40.15359 | -74.20746 | 22399 ft | 413 kts | 197° |
| 2026-04-25 23:04 | 40.11600 | -74.21875 | 23072 ft | 416 kts | 197° |
| 2026-04-25 23:04 | 40.08773 | -74.22724 | 23555 ft | 418 kts | 197° |
| 2026-04-25 23:05 | 40.05934 | -74.23574 | 23919 ft | 420 kts | 197° |
| 2026-04-25 23:05 | 40.03090 | -74.24450 | 24031 ft | 418 kts | 200° |
| 2026-04-25 23:05 | 40.00425 | -74.25757 | 24075 ft | 413 kts | 210° |
| 2026-04-25 23:05 | 39.97969 | -74.27688 | 24075 ft | 415 kts | 219° |
| 2026-04-25 23:06 | 39.95614 | -74.29959 | 24077 ft | 427 kts | 219° |
| 2026-04-25 23:06 | 39.93208 | -74.32272 | 24172 ft | 434 kts | 219° |
| 2026-04-25 23:06 | 39.90758 | -74.34613 | 24462 ft | 437 kts | 219° |
| 2026-04-25 23:06 | 39.88296 | -74.36951 | 24799 ft | 438 kts | 219° |
| 2026-04-25 23:07 | 39.85825 | -74.39289 | 25150 ft | 439 kts | 219° |
| 2026-04-25 23:07 | 39.83345 | -74.41633 | 25450 ft | 441 kts | 219° |
| 2026-04-25 23:07 | 39.80973 | -74.44165 | 25749 ft | 439 kts | 227° |
| 2026-04-25 23:07 | 39.78837 | -74.47008 | 26061 ft | 440 kts | 228° |
| 2026-04-25 23:08 | 39.76700 | -74.49859 | 26368 ft | 441 kts | 229° |
| 2026-04-25 23:08 | 39.74585 | -74.52671 | 26652 ft | 442 kts | 229° |
| 2026-04-25 23:08 | 39.72431 | -74.55523 | 26913 ft | 442 kts | 229° |
| 2026-04-25 23:08 | 39.70270 | -74.58378 | 27168 ft | 443 kts | 229° |
| 2026-04-25 23:09 | 39.68106 | -74.61233 | 27383 ft | 444 kts | 229° |
| 2026-04-25 23:09 | 39.65948 | -74.64082 | 27597 ft | 445 kts | 229° |
| 2026-04-25 23:09 | 39.63772 | -74.66955 | 27786 ft | 445 kts | 229° |
| 2026-04-25 23:09 | 39.61608 | -74.69835 | 28035 ft | 443 kts | 229° |
| 2026-04-25 23:10 | 39.59479 | -74.72655 | 28756 ft | 432 kts | 229° |
| 2026-04-25 23:10 | 39.57377 | -74.75413 | 29374 ft | 426 kts | 229° |
| 2026-04-25 23:10 | 39.55304 | -74.78124 | 29876 ft | 422 kts | 229° |
| 2026-04-25 23:10 | 39.53240 | -74.80821 | 30310 ft | 420 kts | 229° |
| 2026-04-25 23:11 | 39.51190 | -74.83500 | 30672 ft | 418 kts | 230° |
| 2026-04-25 23:11 | 39.49152 | -74.86170 | 31035 ft | 416 kts | 230° |
| 2026-04-25 23:11 | 39.47143 | -74.88803 | 31359 ft | 415 kts | 230° |
| 2026-04-25 23:11 | 39.45117 | -74.91455 | 31685 ft | 414 kts | 230° |
| 2026-04-25 23:12 | 39.43097 | -74.94098 | 32029 ft | 413 kts | 230° |
| 2026-04-25 23:12 | 39.41067 | -74.96752 | 32384 ft | 412 kts | 230° |
| 2026-04-25 23:12 | 39.39063 | -74.99371 | 32731 ft | 411 kts | 230° |
| 2026-04-25 23:12 | 39.37050 | -75.01996 | 33080 ft | 410 kts | 230° |
| 2026-04-25 23:13 | 39.35048 | -75.04608 | 33437 ft | 408 kts | 230° |
| 2026-04-25 23:13 | 39.33044 | -75.07222 | 33802 ft | 407 kts | 229° |
| 2026-04-25 23:13 | 39.31052 | -75.09815 | 34163 ft | 405 kts | 229° |
| 2026-04-25 23:13 | 39.29060 | -75.12397 | 34468 ft | 404 kts | 229° |
| 2026-04-25 23:14 | 39.27056 | -75.14941 | 34764 ft | 403 kts | 229° |
| 2026-04-25 23:14 | 39.25041 | -75.17460 | 34967 ft | 404 kts | 229° |
| 2026-04-25 23:14 | 39.20999 | -75.22479 | 35015 ft | 403 kts | 229° |
| 2026-04-25 23:15 | 39.16987 | -75.27472 | 34994 ft | 402 kts | 229° |
| 2026-04-25 23:15 | 39.12962 | -75.32491 | 34991 ft | 402 kts | 229° |
| 2026-04-25 23:16 | 39.08945 | -75.37495 | 34984 ft | 402 kts | 229° |
| 2026-04-25 23:16 | 39.04610 | -75.42101 | 34990 ft | 411 kts | 215° |
| 2026-04-25 23:17 | 39.01981 | -75.43638 | 35001 ft | 420 kts | 204° |
| 2026-04-25 23:17 | 38.99115 | -75.44499 | 35001 ft | 429 kts | 194° |
| 2026-04-25 23:17 | 38.93144 | -75.45324 | 34997 ft | 430 kts | 193° |
| 2026-04-25 23:18 | 38.87232 | -75.46130 | 34966 ft | 430 kts | 193° |
| 2026-04-25 23:18 | 38.81279 | -75.46952 | 34967 ft | 432 kts | 193° |
| 2026-04-25 23:19 | 38.75228 | -75.47793 | 34980 ft | 441 kts | 193° |
| 2026-04-25 23:19 | 38.69098 | -75.48634 | 34979 ft | 443 kts | 193° |
| 2026-04-25 23:20 | 38.62945 | -75.49459 | 34963 ft | 444 kts | 193° |
| 2026-04-25 23:20 | 38.56784 | -75.50290 | 34953 ft | 445 kts | 193° |
| 2026-04-25 23:21 | 38.50666 | -75.51115 | 34956 ft | 445 kts | 193° |
| 2026-04-25 23:21 | 38.44513 | -75.51944 | 34933 ft | 445 kts | 193° |
| 2026-04-25 23:22 | 38.38348 | -75.52782 | 34936 ft | 445 kts | 193° |
| 2026-04-25 23:23 | 38.29998 | -75.56786 | 34942 ft | 422 kts | 220° |
| 2026-04-25 23:23 | 38.25154 | -75.61016 | 34944 ft | 422 kts | 219° |
| 2026-04-25 23:24 | 38.20298 | -75.65238 | 34926 ft | 423 kts | 219° |
| 2026-04-25 23:24 | 38.16256 | -75.68750 | 34931 ft | 424 kts | 219° |
| 2026-04-25 23:25 | 38.11385 | -75.72981 | 34927 ft | 424 kts | 219° |
| 2026-04-25 23:25 | 38.06502 | -75.77212 | 34924 ft | 425 kts | 219° |
| 2026-04-25 23:26 | 38.01618 | -75.81433 | 34917 ft | 425 kts | 219° |
| 2026-04-25 23:26 | 37.96727 | -75.85650 | 34909 ft | 425 kts | 219° |
| 2026-04-25 23:27 | 37.91833 | -75.89871 | 34908 ft | 426 kts | 219° |
| 2026-04-25 23:27 | 37.86932 | -75.94094 | 34930 ft | 426 kts | 219° |
| 2026-04-25 23:28 | 37.82025 | -75.98309 | 34928 ft | 426 kts | 219° |
| 2026-04-25 23:28 | 37.77141 | -76.02502 | 34910 ft | 427 kts | 218° |
| 2026-04-25 23:29 | 37.72216 | -76.06726 | 34914 ft | 428 kts | 218° |
| 2026-04-25 23:29 | 37.67274 | -76.10949 | 34913 ft | 429 kts | 218° |
| 2026-04-25 23:30 | 37.62331 | -76.15171 | 34918 ft | 429 kts | 217° |
| 2026-04-25 23:30 | 37.56817 | -76.18218 | 34934 ft | 437 kts | 204° |
| 2026-04-25 23:31 | 37.51046 | -76.20603 | 34924 ft | 436 kts | 204° |
| 2026-04-25 23:31 | 37.45285 | -76.22990 | 34920 ft | 435 kts | 204° |
| 2026-04-25 23:32 | 37.39539 | -76.25372 | 34916 ft | 434 kts | 204° |
| 2026-04-25 23:32 | 37.33829 | -76.27736 | 34891 ft | 435 kts | 203° |
| 2026-04-25 23:33 | 37.28082 | -76.30114 | 34878 ft | 435 kts | 203° |
| 2026-04-25 23:33 | 37.22334 | -76.32487 | 34855 ft | 435 kts | 203° |
| 2026-04-25 23:34 | 37.16571 | -76.34861 | 34849 ft | 435 kts | 203° |
| 2026-04-25 23:34 | 37.10822 | -76.37225 | 34830 ft | 436 kts | 203° |
| 2026-04-25 23:35 | 37.05053 | -76.39589 | 34833 ft | 436 kts | 203° |
| 2026-04-25 23:35 | 36.99280 | -76.41950 | 34838 ft | 436 kts | 203° |
| 2026-04-25 23:36 | 36.93497 | -76.44312 | 34826 ft | 437 kts | 203° |
| 2026-04-25 23:36 | 36.87714 | -76.46671 | 34823 ft | 438 kts | 203° |
| 2026-04-25 23:37 | 36.81919 | -76.49036 | 34830 ft | 438 kts | 203° |
| 2026-04-25 23:37 | 36.76120 | -76.51405 | 34851 ft | 438 kts | 203° |
| 2026-04-25 23:38 | 36.70363 | -76.53746 | 34845 ft | 438 kts | 203° |
| 2026-04-25 23:38 | 36.64570 | -76.56092 | 34853 ft | 438 kts | 203° |
| 2026-04-25 23:39 | 36.58743 | -76.58454 | 34864 ft | 438 kts | 203° |
| 2026-04-25 23:39 | 36.52990 | -76.60784 | 34830 ft | 438 kts | 203° |
| 2026-04-25 23:40 | 36.47161 | -76.63143 | 34810 ft | 438 kts | 203° |
| 2026-04-25 23:40 | 36.41396 | -76.65471 | 34817 ft | 438 kts | 203° |
| 2026-04-25 23:41 | 36.35598 | -76.67810 | 34817 ft | 439 kts | 203° |
| 2026-04-25 23:41 | 36.29775 | -76.70153 | 34828 ft | 439 kts | 203° |
| 2026-04-25 23:42 | 36.23958 | -76.72489 | 34819 ft | 440 kts | 203° |
| 2026-04-25 23:42 | 36.18135 | -76.74824 | 34824 ft | 441 kts | 203° |
| 2026-04-25 23:43 | 36.12290 | -76.77156 | 34831 ft | 441 kts | 202° |
| 2026-04-25 23:43 | 36.06438 | -76.79487 | 34839 ft | 442 kts | 203° |
| 2026-04-25 23:44 | 36.00589 | -76.81822 | 34817 ft | 442 kts | 202° |
| 2026-04-25 23:44 | 35.94724 | -76.84159 | 34819 ft | 443 kts | 202° |
| 2026-04-25 23:45 | 35.89028 | -76.86875 | 34827 ft | 438 kts | 211° |
| 2026-04-25 23:45 | 35.83586 | -76.90248 | 34842 ft | 438 kts | 211° |
| 2026-04-25 23:46 | 35.78135 | -76.93602 | 34842 ft | 438 kts | 211° |
| 2026-04-25 23:46 | 35.72678 | -76.96950 | 34849 ft | 438 kts | 211° |
| 2026-04-25 23:47 | 35.67212 | -77.00303 | 34855 ft | 438 kts | 211° |
| 2026-04-25 23:47 | 35.61753 | -77.03653 | 34860 ft | 439 kts | 211° |
| 2026-04-25 23:48 | 35.56327 | -77.06975 | 34862 ft | 439 kts | 211° |
| 2026-04-25 23:48 | 35.50855 | -77.10322 | 34839 ft | 440 kts | 211° |
| 2026-04-25 23:49 | 35.45373 | -77.13673 | 34841 ft | 441 kts | 211° |
| 2026-04-25 23:49 | 35.39868 | -77.17030 | 34844 ft | 442 kts | 211° |
| 2026-04-25 23:50 | 35.34358 | -77.20377 | 34850 ft | 442 kts | 211° |
| 2026-04-25 23:50 | 35.28875 | -77.23708 | 34861 ft | 442 kts | 210° |
| 2026-04-25 23:51 | 35.23369 | -77.27052 | 34880 ft | 442 kts | 210° |
| 2026-04-25 23:51 | 35.17866 | -77.30387 | 34889 ft | 441 kts | 210° |
| 2026-04-25 23:52 | 35.12364 | -77.33712 | 34890 ft | 441 kts | 210° |
| 2026-04-25 23:52 | 35.06865 | -77.37027 | 34874 ft | 441 kts | 210° |
| 2026-04-25 23:53 | 35.01365 | -77.40342 | 34870 ft | 441 kts | 210° |
| 2026-04-25 23:53 | 34.95853 | -77.43663 | 34875 ft | 442 kts | 210° |
| 2026-04-25 23:54 | 34.90333 | -77.46981 | 34879 ft | 442 kts | 210° |
| 2026-04-25 23:54 | 34.84810 | -77.50300 | 34857 ft | 442 kts | 210° |
| 2026-04-25 23:55 | 34.79281 | -77.53617 | 34854 ft | 443 kts | 210° |
| 2026-04-25 23:55 | 34.73737 | -77.56929 | 34860 ft | 444 kts | 210° |
| 2026-04-25 23:56 | 34.68189 | -77.60249 | 34889 ft | 444 kts | 210° |
| 2026-04-25 23:56 | 34.62673 | -77.63538 | 34898 ft | 444 kts | 210° |
| 2026-04-25 23:57 | 34.57110 | -77.66817 | 34861 ft | 447 kts | 206° |
| 2026-04-25 23:57 | 34.51039 | -77.68761 | 34858 ft | 455 kts | 196° |
| 2026-04-25 23:58 | 34.44827 | -77.70331 | 34858 ft | 457 kts | 196° |
| 2026-04-25 23:58 | 34.38604 | -77.71905 | 34868 ft | 457 kts | 196° |
| 2026-04-25 23:59 | 34.32365 | -77.73496 | 34851 ft | 458 kts | 196° |
| 2026-04-25 23:59 | 34.26115 | -77.75085 | 34868 ft | 460 kts | 196° |
| 2026-04-26 00:00 | 34.19849 | -77.76671 | 34882 ft | 460 kts | 196° |
| 2026-04-26 00:00 | 34.13574 | -77.78255 | 34891 ft | 461 kts | 196° |
| 2026-04-26 00:01 | 34.07293 | -77.79843 | 34888 ft | 462 kts | 195° |
| 2026-04-26 00:01 | 34.00991 | -77.81431 | 34898 ft | 462 kts | 195° |
| 2026-04-26 00:02 | 33.94737 | -77.83008 | 34905 ft | 463 kts | 195° |
| 2026-04-26 00:02 | 33.88418 | -77.84601 | 34910 ft | 463 kts | 195° |
| 2026-04-26 00:03 | 33.82099 | -77.86186 | 34894 ft | 463 kts | 195° |
| 2026-04-26 00:03 | 33.75975 | -77.87840 | 34903 ft | 463 kts | 198° |
| 2026-04-26 00:04 | 33.69789 | -77.89957 | 34916 ft | 462 kts | 200° |
| 2026-04-26 00:04 | 33.66719 | -77.91076 | 35122 ft | 460 kts | 200° |
| 2026-04-26 00:04 | 33.63658 | -77.92182 | 35364 ft | 459 kts | 200° |
| 2026-04-26 00:04 | 33.60600 | -77.93264 | 35591 ft | 457 kts | 199° |
| 2026-04-26 00:05 | 33.57542 | -77.94322 | 35818 ft | 457 kts | 199° |
| 2026-04-26 00:05 | 33.51399 | -77.96395 | 35914 ft | 460 kts | 199° |
| 2026-04-26 00:06 | 33.45212 | -77.98451 | 35914 ft | 461 kts | 199° |
| 2026-04-26 00:06 | 33.39080 | -78.00504 | 35920 ft | 461 kts | 199° |
| 2026-04-26 00:07 | 33.32899 | -78.02591 | 35917 ft | 462 kts | 199° |
| 2026-04-26 00:07 | 33.26705 | -78.04683 | 35924 ft | 462 kts | 199° |
| 2026-04-26 00:08 | 33.20515 | -78.06765 | 35933 ft | 463 kts | 199° |
| 2026-04-26 00:08 | 33.14295 | -78.08840 | 35936 ft | 463 kts | 199° |
| 2026-04-26 00:09 | 33.08117 | -78.10919 | 35915 ft | 464 kts | 199° |
| 2026-04-26 00:09 | 33.01900 | -78.13012 | 35920 ft | 465 kts | 199° |
| 2026-04-26 00:10 | 32.95651 | -78.15094 | 35938 ft | 465 kts | 199° |
| 2026-04-26 00:10 | 32.89422 | -78.17162 | 35946 ft | 466 kts | 199° |
| 2026-04-26 00:11 | 32.83181 | -78.19236 | 35945 ft | 466 kts | 199° |
| 2026-04-26 00:11 | 32.76935 | -78.21325 | 35950 ft | 466 kts | 199° |
| 2026-04-26 00:12 | 32.70680 | -78.23408 | 35950 ft | 466 kts | 199° |
| 2026-04-26 00:12 | 32.64436 | -78.25471 | 35949 ft | 466 kts | 199° |
| 2026-04-26 00:13 | 32.58187 | -78.27530 | 35936 ft | 466 kts | 199° |
| 2026-04-26 00:13 | 32.51933 | -78.29599 | 35936 ft | 467 kts | 199° |
| 2026-04-26 00:14 | 32.45661 | -78.31681 | 35941 ft | 468 kts | 199° |
| 2026-04-26 00:14 | 32.39388 | -78.33751 | 35950 ft | 468 kts | 199° |
| 2026-04-26 00:15 | 32.33136 | -78.35801 | 35936 ft | 469 kts | 199° |
| 2026-04-26 00:15 | 32.26838 | -78.37863 | 35943 ft | 470 kts | 199° |
| 2026-04-26 00:16 | 32.21553 | -78.39600 | 35944 ft | 471 kts | 199° |
| 2026-04-26 00:16 | 32.14208 | -78.42006 | 35951 ft | 471 kts | 199° |
| 2026-04-26 00:17 | 32.08918 | -78.43736 | 35956 ft | 471 kts | 199° |
| 2026-04-26 00:17 | 32.02583 | -78.45805 | 35936 ft | 473 kts | 199° |
| 2026-04-26 00:18 | 31.96268 | -78.47871 | 35945 ft | 474 kts | 199° |
| 2026-04-26 00:18 | 31.89900 | -78.49945 | 35952 ft | 474 kts | 199° |
| 2026-04-26 00:19 | 31.83535 | -78.52013 | 35960 ft | 475 kts | 199° |
| 2026-04-26 00:19 | 31.77155 | -78.54091 | 35952 ft | 476 kts | 199° |
| 2026-04-26 00:20 | 31.70778 | -78.56166 | 35960 ft | 476 kts | 198° |
| 2026-04-26 00:20 | 31.64386 | -78.58232 | 35966 ft | 477 kts | 198° |
| 2026-04-26 00:21 | 31.57979 | -78.60301 | 35967 ft | 477 kts | 198° |
| 2026-04-26 00:21 | 31.51575 | -78.62387 | 35953 ft | 478 kts | 199° |
| 2026-04-26 00:22 | 31.45196 | -78.64580 | 35951 ft | 479 kts | 199° |
| 2026-04-26 00:22 | 31.38803 | -78.66804 | 35957 ft | 479 kts | 199° |
| 2026-04-26 00:23 | 31.32444 | -78.68986 | 35970 ft | 479 kts | 199° |
| 2026-04-26 00:23 | 31.26044 | -78.71168 | 35970 ft | 479 kts | 199° |
| 2026-04-26 00:24 | 31.19649 | -78.73345 | 35977 ft | 479 kts | 199° |
| 2026-04-26 00:24 | 31.13254 | -78.75525 | 35978 ft | 479 kts | 199° |
| 2026-04-26 00:25 | 31.06848 | -78.77690 | 35980 ft | 479 kts | 199° |
| 2026-04-26 00:25 | 31.00448 | -78.79857 | 35970 ft | 479 kts | 199° |
| 2026-04-26 00:26 | 30.94043 | -78.82042 | 35968 ft | 480 kts | 199° |
| 2026-04-26 00:26 | 30.87631 | -78.84221 | 35972 ft | 480 kts | 199° |
| 2026-04-26 00:27 | 30.81208 | -78.86387 | 35977 ft | 480 kts | 198° |
| 2026-04-26 00:27 | 30.74775 | -78.88553 | 35965 ft | 481 kts | 198° |
| 2026-04-26 00:28 | 30.68380 | -78.90710 | 35964 ft | 482 kts | 198° |
| 2026-04-26 00:28 | 30.61937 | -78.92877 | 35969 ft | 482 kts | 198° |
| 2026-04-26 00:29 | 30.55491 | -78.95046 | 35977 ft | 483 kts | 198° |
| 2026-04-26 00:29 | 30.49031 | -78.97216 | 35984 ft | 483 kts | 198° |
| 2026-04-26 00:30 | 30.42567 | -78.99385 | 35969 ft | 483 kts | 198° |
| 2026-04-26 00:30 | 30.36031 | -79.01297 | 35974 ft | 485 kts | 194° |
| 2026-04-26 00:31 | 30.29433 | -79.02928 | 35977 ft | 485 kts | 194° |
| 2026-04-26 00:31 | 30.22827 | -79.04556 | 35984 ft | 485 kts | 194° |
| 2026-04-26 00:32 | 30.16243 | -79.06267 | 35985 ft | 485 kts | 195° |
| 2026-04-26 00:32 | 30.06420 | -79.08863 | 35996 ft | 483 kts | 195° |
| 2026-04-26 00:33 | 29.99865 | -79.10583 | 35989 ft | 483 kts | 195° |
| 2026-04-26 00:33 | 29.93316 | -79.12280 | 35988 ft | 482 kts | 194° |
| 2026-04-26 00:34 | 29.86770 | -79.13980 | 35983 ft | 482 kts | 195° |
| 2026-04-26 00:34 | 29.80223 | -79.15687 | 35988 ft | 482 kts | 194° |
| 2026-04-26 00:35 | 29.73663 | -79.17352 | 35990 ft | 483 kts | 194° |
| 2026-04-26 00:35 | 29.67105 | -79.19014 | 35983 ft | 482 kts | 194° |
| 2026-04-26 00:36 | 29.60534 | -79.20681 | 35964 ft | 484 kts | 194° |
| 2026-04-26 00:36 | 29.53960 | -79.22352 | 35971 ft | 484 kts | 194° |
| 2026-04-26 00:37 | 29.47364 | -79.24032 | 35983 ft | 485 kts | 194° |
| 2026-04-26 00:37 | 29.40775 | -79.25707 | 35984 ft | 485 kts | 194° |
| 2026-04-26 00:38 | 29.34180 | -79.27377 | 35974 ft | 486 kts | 194° |
| 2026-04-26 00:38 | 29.27566 | -79.29045 | 35971 ft | 487 kts | 194° |
| 2026-04-26 00:39 | 29.20979 | -79.30706 | 35977 ft | 487 kts | 194° |
| 2026-04-26 00:39 | 29.14350 | -79.32382 | 35981 ft | 488 kts | 194° |
| 2026-04-26 00:40 | 29.07713 | -79.34061 | 35976 ft | 489 kts | 194° |
| 2026-04-26 00:40 | 29.01055 | -79.35736 | 35970 ft | 490 kts | 194° |
| 2026-04-26 00:41 | 28.94402 | -79.37400 | 35956 ft | 489 kts | 194° |
| 2026-04-26 00:41 | 28.87734 | -79.39071 | 35964 ft | 490 kts | 194° |
| 2026-04-26 00:42 | 28.81077 | -79.40743 | 35969 ft | 490 kts | 194° |
| 2026-04-26 00:42 | 28.74399 | -79.42420 | 35972 ft | 491 kts | 194° |
| 2026-04-26 00:43 | 28.67749 | -79.44077 | 35817 ft | 486 kts | 194° |
| 2026-04-26 00:43 | 28.64444 | -79.44899 | 35040 ft | 486 kts | 195° |
| 2026-04-26 00:43 | 28.61175 | -79.45717 | 34217 ft | 488 kts | 195° |
| 2026-04-26 00:44 | 28.57858 | -79.46552 | 33276 ft | 490 kts | 195° |
| 2026-04-26 00:44 | 28.54526 | -79.47390 | 32283 ft | 493 kts | 195° |
| 2026-04-26 00:44 | 28.51176 | -79.48230 | 31613 ft | 494 kts | 195° |
| 2026-04-26 00:44 | 28.47795 | -79.49072 | 31005 ft | 499 kts | 194° |
| 2026-04-26 00:45 | 28.44390 | -79.49915 | 30410 ft | 502 kts | 194° |
| 2026-04-26 00:45 | 28.40967 | -79.50761 | 29794 ft | 504 kts | 194° |
| 2026-04-26 00:45 | 28.37540 | -79.51609 | 29115 ft | 505 kts | 194° |
| 2026-04-26 00:45 | 28.34110 | -79.52458 | 28451 ft | 505 kts | 194° |
| 2026-04-26 00:46 | 28.30675 | -79.53309 | 27803 ft | 504 kts | 194° |
| 2026-04-26 00:46 | 28.27252 | -79.54177 | 27164 ft | 503 kts | 195° |
| 2026-04-26 00:46 | 28.23839 | -79.55088 | 26544 ft | 502 kts | 195° |
| 2026-04-26 00:46 | 28.20454 | -79.56021 | 25940 ft | 497 kts | 196° |
| 2026-04-26 00:47 | 28.17156 | -79.56945 | 25346 ft | 491 kts | 196° |
| 2026-04-26 00:47 | 28.13851 | -79.57868 | 24765 ft | 485 kts | 196° |
| 2026-04-26 00:47 | 28.10622 | -79.58759 | 24191 ft | 469 kts | 196° |
| 2026-04-26 00:47 | 28.07508 | -79.59607 | 23634 ft | 454 kts | 196° |
| 2026-04-26 00:48 | 28.04470 | -79.60426 | 22989 ft | 441 kts | 195° |
| 2026-04-26 00:48 | 28.01521 | -79.61218 | 22336 ft | 430 kts | 196° |
| 2026-04-26 00:48 | 27.98644 | -79.61992 | 21700 ft | 422 kts | 196° |
| 2026-04-26 00:48 | 27.95801 | -79.62760 | 21069 ft | 418 kts | 196° |
| 2026-04-26 00:49 | 27.92986 | -79.63524 | 20459 ft | 414 kts | 196° |
| 2026-04-26 00:49 | 27.90183 | -79.64288 | 19859 ft | 414 kts | 196° |
| 2026-04-26 00:49 | 27.87387 | -79.65050 | 19270 ft | 413 kts | 196° |
| 2026-04-26 00:49 | 27.84586 | -79.65812 | 18695 ft | 413 kts | 196° |
| 2026-04-26 00:50 | 27.81796 | -79.66568 | 18111 ft | 412 kts | 195° |
| 2026-04-26 00:50 | 27.79006 | -79.67321 | 17457 ft | 412 kts | 195° |
| 2026-04-26 00:50 | 27.76229 | -79.68070 | 16821 ft | 410 kts | 195° |
| 2026-04-26 00:50 | 27.73454 | -79.68819 | 16235 ft | 408 kts | 195° |
| 2026-04-26 00:51 | 27.70733 | -79.69554 | 16019 ft | 395 kts | 195° |
| 2026-04-26 00:51 | 27.68083 | -79.70269 | 16005 ft | 390 kts | 195° |
| 2026-04-26 00:51 | 27.65447 | -79.70980 | 16015 ft | 390 kts | 195° |
| 2026-04-26 00:51 | 27.62803 | -79.71694 | 16013 ft | 390 kts | 195° |
| 2026-04-26 00:52 | 27.60193 | -79.72396 | 16012 ft | 390 kts | 195° |
| 2026-04-26 00:52 | 27.57521 | -79.73118 | 16013 ft | 390 kts | 195° |
| 2026-04-26 00:52 | 27.54912 | -79.73825 | 16013 ft | 390 kts | 195° |
| 2026-04-26 00:52 | 27.52273 | -79.74537 | 16014 ft | 390 kts | 195° |
| 2026-04-26 00:53 | 27.49638 | -79.75246 | 16012 ft | 390 kts | 195° |
| 2026-04-26 00:53 | 27.46991 | -79.75956 | 16013 ft | 390 kts | 195° |
| 2026-04-26 00:53 | 27.44364 | -79.76659 | 15964 ft | 384 kts | 195° |
| 2026-04-26 00:53 | 27.41853 | -79.77325 | 15829 ft | 356 kts | 195° |
| 2026-04-26 00:54 | 27.39523 | -79.77940 | 15649 ft | 334 kts | 195° |
| 2026-04-26 00:54 | 27.37299 | -79.78532 | 15174 ft | 325 kts | 196° |
| 2026-04-26 00:54 | 27.35113 | -79.79120 | 14581 ft | 320 kts | 196° |
| 2026-04-26 00:54 | 27.32956 | -79.79704 | 14000 ft | 317 kts | 196° |
| 2026-04-26 00:55 | 27.30819 | -79.80280 | 13390 ft | 314 kts | 196° |
| 2026-04-26 00:55 | 27.28709 | -79.80845 | 12760 ft | 311 kts | 196° |
| 2026-04-26 00:55 | 27.26617 | -79.81404 | 12140 ft | 307 kts | 195° |
| 2026-04-26 00:55 | 27.24547 | -79.81958 | 11546 ft | 304 kts | 196° |
| 2026-04-26 00:56 | 27.22495 | -79.82509 | 10951 ft | 301 kts | 196° |
| 2026-04-26 00:56 | 27.20519 | -79.83209 | 10369 ft | 295 kts | 207° |
| 2026-04-26 00:56 | 27.18714 | -79.84263 | 9783 ft | 291 kts | 210° |
| 2026-04-26 00:56 | 27.16938 | -79.85327 | 9166 ft | 289 kts | 210° |
| 2026-04-26 00:57 | 27.15194 | -79.86363 | 8585 ft | 285 kts | 211° |
| 2026-04-26 00:57 | 27.13447 | -79.87399 | 7999 ft | 282 kts | 210° |
| 2026-04-26 00:57 | 27.11721 | -79.88422 | 7440 ft | 279 kts | 210° |
| 2026-04-26 00:57 | 27.10011 | -79.89439 | 6869 ft | 276 kts | 211° |
| 2026-04-26 00:58 | 27.08322 | -79.90444 | 6310 ft | 274 kts | 210° |
| 2026-04-26 00:58 | 27.06641 | -79.91444 | 5720 ft | 272 kts | 211° |
| 2026-04-26 00:58 | 27.04975 | -79.92437 | 5132 ft | 270 kts | 209° |
| 2026-04-26 00:58 | 27.03326 | -79.93419 | 4565 ft | 268 kts | 208° |
| 2026-04-26 00:59 | 27.01692 | -79.94392 | 4109 ft | 263 kts | 208° |
| 2026-04-26 00:59 | 27.00067 | -79.95358 | 4003 ft | 264 kts | 207° |
| 2026-04-26 00:59 | 26.98442 | -79.96323 | 4004 ft | 265 kts | 207° |
| 2026-04-26 00:59 | 26.96804 | -79.97294 | 4010 ft | 266 kts | 207° |
| 2026-04-26 01:00 | 26.95181 | -79.98291 | 4006 ft | 266 kts | 213° |
| 2026-04-26 01:00 | 26.93708 | -79.99532 | 4008 ft | 265 kts | 217° |
| 2026-04-26 01:00 | 26.92263 | -80.00784 | 4007 ft | 256 kts | 217° |
| 2026-04-26 01:00 | 26.91349 | -80.01574 | 4005 ft | 247 kts | 217° |
| 2026-04-26 01:01 | 26.89997 | -80.02739 | 4003 ft | 245 kts | 217° |
| 2026-04-26 01:01 | 26.88654 | -80.03893 | 4000 ft | 238 kts | 217° |
| 2026-04-26 01:01 | 26.87383 | -80.04987 | 3988 ft | 225 kts | 217° |
| 2026-04-26 01:01 | 26.85748 | -80.06394 | 3991 ft | 223 kts | 217° |
| 2026-04-26 01:02 | 26.84930 | -80.07096 | 3989 ft | 223 kts | 217° |
| 2026-04-26 01:02 | 26.83685 | -80.08169 | 3990 ft | 224 kts | 217° |
| 2026-04-26 01:02 | 26.82470 | -80.09226 | 3995 ft | 223 kts | 217° |
| 2026-04-26 01:02 | 26.81340 | -80.10404 | 3987 ft | 223 kts | 232° |
| 2026-04-26 01:03 | 26.80643 | -80.11947 | 3991 ft | 225 kts | 254° |
| 2026-04-26 01:03 | 26.80436 | -80.13690 | 3996 ft | 226 kts | 264° |
| 2026-04-26 01:03 | 26.80320 | -80.15442 | 3992 ft | 226 kts | 265° |
| 2026-04-26 01:03 | 26.80189 | -80.17198 | 3981 ft | 226 kts | 263° |
| 2026-04-26 01:04 | 26.80050 | -80.18904 | 3972 ft | 211 kts | 263° |
| 2026-04-26 01:04 | 26.79913 | -80.20477 | 3975 ft | 196 kts | 262° |
| 2026-04-26 01:04 | 26.79773 | -80.21973 | 3976 ft | 193 kts | 262° |
| 2026-04-26 01:04 | 26.79626 | -80.23468 | 3978 ft | 192 kts | 261° |
| 2026-04-26 01:05 | 26.79478 | -80.24953 | 3980 ft | 192 kts | 261° |
| 2026-04-26 01:05 | 26.79327 | -80.26436 | 3981 ft | 192 kts | 261° |
| 2026-04-26 01:05 | 26.79178 | -80.27920 | 3971 ft | 189 kts | 261° |
| 2026-04-26 01:05 | 26.79034 | -80.29384 | 3678 ft | 190 kts | 261° |
| 2026-04-26 01:06 | 26.78885 | -80.30856 | 3418 ft | 189 kts | 261° |
| 2026-04-26 01:06 | 26.78657 | -80.32283 | 3163 ft | 185 kts | 246° |
| 2026-04-26 01:06 | 26.77905 | -80.33405 | 2995 ft | 181 kts | 215° |
| 2026-04-26 01:06 | 26.76747 | -80.33917 | 2973 ft | 181 kts | 187° |
| 2026-04-26 01:07 | 26.75501 | -80.34065 | 2970 ft | 182 kts | 186° |
| 2026-04-26 01:07 | 26.74225 | -80.34213 | 2975 ft | 183 kts | 186° |
| 2026-04-26 01:07 | 26.72980 | -80.34354 | 2978 ft | 182 kts | 184° |
| 2026-04-26 01:07 | 26.71724 | -80.34220 | 3002 ft | 183 kts | 165° |
| 2026-04-26 01:08 | 26.70576 | -80.33590 | 2995 ft | 177 kts | 144° |
| 2026-04-26 01:08 | 26.69764 | -80.32632 | 2998 ft | 170 kts | 126° |
| 2026-04-26 01:08 | 26.69278 | -80.31438 | 3003 ft | 170 kts | 107° |
| 2026-04-26 01:08 | 26.69142 | -80.30124 | 3019 ft | 171 kts | 96° |
| 2026-04-26 01:09 | 26.69086 | -80.28799 | 3005 ft | 171 kts | 96° |
| 2026-04-26 01:09 | 26.69031 | -80.27468 | 2874 ft | 171 kts | 95° |
| 2026-04-26 01:09 | 26.68975 | -80.26148 | 2690 ft | 169 kts | 96° |
| 2026-04-26 01:09 | 26.68920 | -80.24836 | 2485 ft | 167 kts | 96° |
| 2026-04-26 01:10 | 26.68865 | -80.23551 | 2276 ft | 165 kts | 96° |
| 2026-04-26 01:10 | 26.68811 | -80.22272 | 2058 ft | 162 kts | 96° |
| 2026-04-26 01:10 | 26.68761 | -80.21075 | 1853 ft | 147 kts | 96° |
| 2026-04-26 01:10 | 26.68714 | -80.19960 | 1670 ft | 142 kts | 97° |
| 2026-04-26 01:11 | 26.68666 | -80.18867 | 1480 ft | 140 kts | 96° |
| 2026-04-26 01:11 | 26.68620 | -80.17782 | 1302 ft | 139 kts | 96° |
| 2026-04-26 01:11 | 26.68573 | -80.16705 | 1125 ft | 138 kts | 97° |
| 2026-04-26 01:11 | 26.68527 | -80.15643 | 938 ft | 138 kts | 97° |
| 2026-04-26 01:12 | 26.68469 | -80.14572 | 756 ft | 139 kts | 95° |
| 2026-04-26 01:12 | 26.68435 | -80.13490 | 598 ft | 139 kts | 96° |
| 2026-04-26 01:12 | 26.68392 | -80.12427 | 395 ft | 136 kts | 94° |
| 2026-04-26 01:12 | 26.68347 | -80.11385 | 240 ft | 133 kts | 95° |
| 2026-04-26 01:13 | 26.68300 | -80.10357 | 44 ft | 132 kts | 96° |
| 2026-04-26 01:13 | 26.68260 | -80.09449 | 28 ft | 97 kts | 92° |
| 2026-04-26 01:13 | 26.68237 | -80.08890 | 25 ft | 47 kts | 92° |
| 2026-04-26 01:13 | 26.68280 | -80.08654 | 30 ft | 14 kts | 33° |
| 2026-04-26 01:14 | 26.68338 | -80.08712 | 28 ft | 15 kts | 276° |
| 2026-04-26 01:14 | 26.68345 | -80.08822 | 25 ft | 16 kts | 272° |
| 2026-04-26 01:14 | 26.68349 | -80.08956 | 24 ft | 19 kts | 272° |
| 2026-04-26 01:14 | 26.68356 | -80.09105 | 26 ft | 20 kts | 273° |
| 2026-04-26 01:15 | 26.68363 | -80.09264 | 26 ft | 22 kts | 272° |
| 2026-04-26 01:15 | 26.68402 | -80.09362 | 26 ft | 13 kts | 316° |
| 2026-04-26 01:15 | 26.68476 | -80.09364 | 28 ft | 12 kts | 46° |
| 2026-04-26 01:15 | 26.68519 | -80.09313 | 28 ft | 8 kts | 46° |
| 2026-04-26 01:16 | 26.68524 | -80.09307 | 28 ft | 0 kts | 46° |
| 2026-04-26 01:16 | 26.68531 | -80.09299 | 27 ft | 6 kts | 46° |
| 2026-04-26 01:16 | 26.68595 | -80.09247 | 27 ft | 15 kts | 3° |
| 2026-04-26 01:17 | 26.68645 | -80.09280 | 28 ft | 3 kts | 320° |
| 2026-04-26 01:17 | 26.68652 | -80.09287 | 28 ft | 0 kts | 318° |